F/V Matmaco — FVNS — position and weather

sailwx.info

Track history (hours):
 
Tides and Currents Weather Stations Pressure Air Temp Water Temp Dewpoint Dewpoint Depression Visibility Wind Speed Wind Dir Waves Ship Positions

F/V Matmaco

Last reported at 2016-Feb-11 23:20 UTC. Time now 2016-Feb-13 00:33 UTC.
Position N 47°15' W 002°37'.

Length 20 m.

Type: Other ship. MMSI: 228194000.

Date/timePositionNaut miles runAvg speedWind from/ knotsBaromVisibWave heightAir tempDewpointWater temp
2016-Feb-11 23:20N 47°15' W 002°37'7 8.6
2016-Feb-11 22:33N 47°21' W 002°31'8 6.2
2016-Feb-11 21:12N 47°14' W 002°38'3 0.1
2016-Feb-10 02:33N 47°17' W 002°36'4 3.8
2016-Feb-10 01:33N 47°18' W 002°31'0 0.0
2016-Feb-09 06:10N 47°18' W 002°31'0 0.0
2016-Feb-09 03:33N 47°18' W 002°31'0 0.0
2016-Feb-09 02:31N 47°18' W 002°31'3 2.2
2016-Feb-09 01:13N 47°19' W 002°34'4 5.8
2016-Feb-09 00:33N 47°19' W 002°40'7 6.0
2016-Feb-08 23:22N 47°15' W 002°49'  
2016-Feb-06 02:33N 47°15' W 002°37'5 4.8
2016-Feb-06 01:33N 47°18' W 002°31'0 0.0
2016-Feb-06 00:33N 47°18' W 002°31'0 0.4
2016-Feb-05 23:31N 47°18' W 002°31'8 8.1
2016-Feb-05 22:33N 47°13' W 002°39'31 2.2
2016-Feb-05 08:29N 46°48' W 003°08'  
2016-Feb-03 02:32N 47°11' W 002°36'9 8.6
2016-Feb-03 01:32N 47°19' W 002°33'2 1.9
2016-Feb-03 00:33N 47°18' W 002°31'  
Track history (hours):
 
Tides and Currents Weather Stations Pressure Air Temp Water Temp Dewpoint Dewpoint Depression Visibility Wind Speed Wind Dir Waves Ship Positions

F/V Matmaco

Last reported at 2016-Feb-11 23:20 UTC. Time now 2016-Feb-13 00:33 UTC.
Position N 47°15' W 002°37'.

Length 20 m.

Type: Other ship. MMSI: 228194000.

Date/timePositionNaut miles runAvg speedWind from/ knotsBaromVisibWave heightAir tempDewpointWater temp
2016-Feb-11 23:20N 47°15' W 002°37'7 8.6
2016-Feb-11 22:33N 47°21' W 002°31'8 6.2
2016-Feb-11 21:12N 47°14' W 002°38'3 0.1
2016-Feb-10 02:33N 47°17' W 002°36'4 3.8
2016-Feb-10 01:33N 47°18' W 002°31'0 0.0
2016-Feb-09 06:10N 47°18' W 002°31'0 0.0
2016-Feb-09 03:33N 47°18' W 002°31'0 0.0
2016-Feb-09 02:31N 47°18' W 002°31'3 2.2
2016-Feb-09 01:13N 47°19' W 002°34'4 5.8
2016-Feb-09 00:33N 47°19' W 002°40'7 6.0
2016-Feb-08 23:22N 47°15' W 002°49'  
2016-Feb-06 02:33N 47°15' W 002°37'5 4.8
2016-Feb-06 01:33N 47°18' W 002°31'0 0.0
2016-Feb-06 00:33N 47°18' W 002°31'0 0.4
2016-Feb-05 23:31N 47°18' W 002°31'8 8.1
2016-Feb-05 22:33N 47°13' W 002°39'31 2.2
2016-Feb-05 08:29N 46°48' W 003°08'  
2016-Feb-03 02:32N 47°11' W 002°36'9 8.6
2016-Feb-03 01:32N 47°19' W 002°33'2 1.9
2016-Feb-03 00:33N 47°18' W 002°31'  

Dump ship's entire track history